Time;durP1;ratioP1;P1;durP2;ratioP2;P2;SDS_P1;SDS_P2;PMS_P1;PMS_P2;Temp;Humidity;BMP_temperature;BMP_pressure;BME280_temperature;BME280_humidity;BME280_pressure;Samples;Min_cycle;Max_cycle;Signal;HPM_P1;HPM_P2
2023/06/29 00:02:25;;;;;;;22.08;16.17;;;23.90;95.50;;;;;;5035246;28;20028;-66
2023/06/29 00:04:53;;;;;;;19.75;16.83;;;23.90;95.50;;;;;;5035608;28;20025;-68
2023/06/29 00:07:20;;;;;;;22.35;15.85;;;23.90;95.60;;;;;;5036270;28;20037;-68
2023/06/29 00:09:46;;;;;;;19.15;15.93;;;23.90;95.60;;;;;;5036697;28;20029;-71
2023/06/29 00:12:12;;;;;;;22.20;17.83;;;23.90;95.70;;;;;;5036338;28;20064;-65
2023/06/29 00:14:37;;;;;;;18.98;16.80;;;23.90;95.60;;;;;;5034296;28;20068;-65
2023/06/29 00:17:03;;;;;;;23.83;16.70;;;23.90;95.50;;;;;;5030672;28;20018;-66
2023/06/29 00:19:29;;;;;;;23.50;17.08;;;23.90;95.40;;;;;;5026250;28;20518;-67
2023/06/29 00:21:57;;;;;;;21.10;17.15;;;23.90;95.30;;;;;;5024668;28;21444;-68
2023/06/29 00:24:23;;;;;;;21.05;17.75;;;23.80;95.30;;;;;;5025646;28;20124;-63
2023/06/29 00:26:49;;;;;;;23.58;19.25;;;23.80;95.20;;;;;;5030075;28;20096;-67
2023/06/29 00:29:15;;;;;;;22.63;19.65;;;23.80;95.20;;;;;;5028278;28;20041;-67
2023/06/29 00:31:40;;;;;;;21.23;17.63;;;23.80;95.20;;;;;;5023377;28;20022;-69
2023/06/29 00:34:06;;;;;;;21.15;17.90;;;23.80;95.20;;;;;;5022023;28;20042;-66
2023/06/29 00:36:31;;;;;;;21.52;18.42;;;23.80;95.10;;;;;;5022098;28;20041;-67
2023/06/29 00:38:57;;;;;;;23.50;18.48;;;23.80;95.10;;;;;;5026292;28;20536;-68
2023/06/29 00:41:22;;;;;;;22.05;17.80;;;23.80;95.00;;;;;;5022670;28;20034;-69
2023/06/29 00:43:48;;;;;;;22.20;18.45;;;23.80;95.00;;;;;;5025337;28;20022;-70
2023/06/29 00:46:19;;;;;;;22.88;19.23;;;23.70;94.90;;;;;;5027976;28;20021;-68
2023/06/29 00:48:45;;;;;;;20.70;18.33;;;23.70;94.90;;;;;;5043278;28;20018;-67
2023/06/29 00:51:11;;;;;;;20.50;17.50;;;23.70;94.90;;;;;;5030599;28;20079;-71
2023/06/29 00:53:37;;;;;;;24.15;19.80;;;23.70;94.90;;;;;;5032606;28;20120;-67
2023/06/29 00:56:03;;;;;;;21.65;18.50;;;23.70;94.90;;;;;;5029240;28;20105;-68
2023/06/29 00:58:29;;;;;;;22.63;19.02;;;23.70;94.80;;;;;;5028307;28;20026;-66
2023/06/29 01:00:55;;;;;;;21.00;18.08;;;23.70;94.80;;;;;;5020622;28;20033;-66
2023/06/29 01:03:22;;;;;;;24.92;20.25;;;23.70;94.70;;;;;;5034251;28;20087;-66
2023/06/29 01:05:53;;;;;;;26.05;21.27;;;23.70;94.70;;;;;;5035494;28;20084;-70
2023/06/29 01:08:27;;;;;;;25.55;19.80;;;23.60;94.70;;;;;;5035259;28;20013;-68
2023/06/29 01:10:53;;;;;;;21.65;19.27;;;23.60;94.70;;;;;;5035798;28;20025;-65
2023/06/29 01:13:19;;;;;;;22.63;19.23;;;23.60;94.70;;;;;;5034318;28;20478;-69
2023/06/29 01:15:46;;;;;;;25.95;19.92;;;23.60;94.60;;;;;;5034075;28;20030;-67
2023/06/29 01:18:13;;;;;;;24.08;21.02;;;23.50;94.50;;;;;;5034811;28;20032;-70
2023/06/29 01:20:39;;;;;;;24.13;20.85;;;23.60;94.60;;;;;;5035378;28;20021;-70
2023/06/29 01:23:10;;;;;;;23.73;19.73;;;23.60;94.60;;;;;;5035008;28;20471;-68
2023/06/29 01:25:36;;;;;;;25.25;20.98;;;23.60;94.60;;;;;;5035445;28;20029;-70
2023/06/29 01:28:06;;;;;;;25.45;20.23;;;23.60;94.60;;;;;;5035221;28;20018;-65
2023/06/29 01:30:32;;;;;;;23.33;20.23;;;23.50;94.50;;;;;;5035038;28;20028;-69
2023/06/29 01:32:58;;;;;;;26.08;21.08;;;23.50;94.60;;;;;;5034823;28;20029;-70
2023/06/29 01:35:24;;;;;;;24.52;20.67;;;23.50;94.60;;;;;;5034680;28;20029;-69
2023/06/29 01:37:58;;;;;;;24.88;20.88;;;23.50;94.60;;;;;;5035004;28;20114;-67
2023/06/29 01:40:29;;;;;;;25.65;20.90;;;23.50;94.60;;;;;;5034880;28;20040;-70
2023/06/29 01:42:56;;;;;;;22.95;20.52;;;23.50;94.60;;;;;;5034972;28;20115;-70
2023/06/29 01:45:24;;;;;;;27.08;21.27;;;23.40;94.70;;;;;;5033712;28;20498;-68
2023/06/29 01:47:49;;;;;;;24.00;20.92;;;23.40;94.60;;;;;;5034489;28;20028;-68
2023/06/29 01:50:16;;;;;;;23.63;21.13;;;23.40;94.60;;;;;;5033335;28;20025;-64
2023/06/29 01:52:43;;;;;;;26.98;20.73;;;23.40;94.70;;;;;;5034763;28;20022;-65
2023/06/29 01:55:11;;;;;;;26.40;22.40;;;23.40;94.70;;;;;;5034611;28;20041;-69
2023/06/29 01:57:37;;;;;;;27.25;21.55;;;23.40;94.60;;;;;;5034531;28;20024;-67
2023/06/29 02:00:06;;;;;;;27.67;22.63;;;23.40;94.70;;;;;;5034456;28;20057;-68
2023/06/29 02:02:32;;;;;;;24.50;21.55;;;23.40;94.60;;;;;;5034251;28;20096;-65
2023/06/29 02:04:58;;;;;;;25.73;22.45;;;23.30;94.70;;;;;;5034466;28;20063;-66
2023/06/29 02:07:24;;;;;;;27.80;21.90;;;23.30;94.70;;;;;;5034425;28;20014;-67
2023/06/29 02:09:51;;;;;;;25.67;22.30;;;23.30;94.60;;;;;;5034009;28;20087;-67
2023/06/29 02:12:16;;;;;;;26.80;21.73;;;23.30;94.70;;;;;;5034228;28;20022;-66
2023/06/29 02:14:42;;;;;;;25.17;21.15;;;23.30;94.70;;;;;;5034149;28;20033;-65
2023/06/29 02:17:08;;;;;;;24.67;21.85;;;23.30;94.60;;;;;;5033864;28;20428;-65
2023/06/29 02:19:34;;;;;;;27.52;21.67;;;23.30;94.90;;;;;;5034020;28;20037;-66
2023/06/29 02:21:59;;;;;;;26.58;22.63;;;23.30;94.60;;;;;;5034180;28;20101;-68
2023/06/29 02:24:25;;;;;;;25.63;21.90;;;23.30;94.60;;;;;;5033726;28;20033;-65
2023/06/29 02:26:50;;;;;;;25.48;21.52;;;23.30;94.70;;;;;;5034123;28;20029;-65
2023/06/29 02:29:16;;;;;;;23.48;21.08;;;23.30;94.60;;;;;;5032633;28;20528;-66
2023/06/29 02:31:41;;;;;;;26.50;21.75;;;23.30;94.60;;;;;;5033483;28;20025;-65
2023/06/29 02:34:07;;;;;;;27.65;21.25;;;23.20;94.50;;;;;;5033755;28;20034;-65
2023/06/29 02:36:33;;;;;;;28.17;22.52;;;23.20;94.50;;;;;;5033862;28;20026;-65
2023/06/29 02:38:58;;;;;;;29.30;23.77;;;23.20;94.50;;;;;;5033773;28;20421;-65
2023/06/29 02:41:24;;;;;;;24.40;20.63;;;23.20;94.50;;;;;;5033492;28;20060;-65
2023/06/29 02:43:49;;;;;;;24.30;21.20;;;23.20;94.50;;;;;;5033571;28;20076;-65
2023/06/29 02:46:15;;;;;;;25.58;20.77;;;23.20;94.50;;;;;;5033277;28;20035;-65
2023/06/29 02:48:41;;;;;;;25.33;20.70;;;23.10;94.50;;;;;;5033577;28;20029;-66
2023/06/29 02:51:07;;;;;;;26.73;21.65;;;23.20;94.50;;;;;;5033297;28;20033;-66
2023/06/29 02:53:32;;;;;;;26.88;21.67;;;23.10;94.50;;;;;;5033387;28;20017;-65
2023/06/29 02:55:58;;;;;;;23.77;21.08;;;23.20;94.60;;;;;;5033440;28;20029;-66
2023/06/29 02:58:24;;;;;;;23.98;20.77;;;23.20;94.50;;;;;;5033514;28;20605;-66
2023/06/29 03:00:49;;;;;;;27.02;21.55;;;23.20;94.50;;;;;;5033092;28;20482;-65
2023/06/29 03:03:15;;;;;;;25.42;21.55;;;23.10;94.50;;;;;;5033462;28;20018;-65
2023/06/29 03:05:40;;;;;;;27.92;21.77;;;23.10;94.50;;;;;;5033186;28;20033;-65
2023/06/29 03:08:06;;;;;;;26.67;22.15;;;23.10;94.50;;;;;;5033250;28;20030;-65
2023/06/29 03:10:31;;;;;;;27.08;21.85;;;23.10;94.50;;;;;;5033189;28;20104;-65
2023/06/29 03:12:57;;;;;;;29.17;22.48;;;23.10;94.50;;;;;;5033424;28;20033;-65
2023/06/29 03:15:22;;;;;;;27.02;22.35;;;23.10;94.60;;;;;;5032941;28;20095;-66
2023/06/29 03:17:48;;;;;;;28.58;22.98;;;23.10;94.60;;;;;;5033302;28;20030;-66
2023/06/29 03:20:14;;;;;;;28.38;23.92;;;23.10;94.60;;;;;;5033299;28;20437;-66
2023/06/29 03:22:40;;;;;;;27.08;23.10;;;23.10;94.70;;;;;;5033261;28;20352;-66
2023/06/29 03:25:07;;;;;;;27.58;22.50;;;23.00;94.60;;;;;;5033372;28;20021;-65
2023/06/29 03:27:33;;;;;;;28.73;23.50;;;23.10;94.70;;;;;;5033058;28;20017;-64
2023/06/29 03:29:58;;;;;;;27.65;23.67;;;23.00;94.70;;;;;;5032878;28;20035;-65
2023/06/29 03:32:24;;;;;;;28.58;23.50;;;23.00;94.70;;;;;;5032990;28;20029;-67
2023/06/29 03:34:49;;;;;;;26.58;22.75;;;23.00;94.70;;;;;;5032940;28;20037;-66
2023/06/29 03:37:15;;;;;;;27.30;23.55;;;23.00;94.70;;;;;;5035579;28;20026;-66
2023/06/29 03:39:40;;;;;;;27.25;23.73;;;23.00;94.80;;;;;;5037112;28;20459;-65
2023/06/29 03:42:06;;;;;;;27.60;23.35;;;23.00;94.80;;;;;;5037144;28;20518;-65
2023/06/29 03:44:32;;;;;;;28.35;23.67;;;23.00;94.80;;;;;;5036542;28;20488;-65
2023/06/29 03:46:57;;;;;;;27.75;23.35;;;23.00;94.80;;;;;;5037130;28;20390;-65
2023/06/29 03:49:23;;;;;;;27.73;23.48;;;23.00;94.90;;;;;;5037032;28;20104;-65
2023/06/29 03:51:48;;;;;;;29.63;24.40;;;23.00;94.90;;;;;;5036822;28;20022;-66
2023/06/29 03:54:14;;;;;;;27.40;23.73;;;23.00;94.90;;;;;;5036772;28;20478;-65
2023/06/29 03:56:39;;;;;;;30.42;23.65;;;22.90;94.80;;;;;;5036815;28;20095;-66
2023/06/29 03:59:05;;;;;;;28.70;24.45;;;22.90;94.90;;;;;;5036525;28;20033;-68
2023/06/29 04:01:30;;;;;;;29.48;24.05;;;23.00;94.90;;;;;;5036625;28;20024;-66
2023/06/29 04:03:56;;;;;;;29.10;24.02;;;22.90;94.90;;;;;;5036660;28;20025;-65
2023/06/29 04:06:22;;;;;;;27.38;24.10;;;22.90;94.90;;;;;;5036656;28;20030;-68
2023/06/29 04:08:47;;;;;;;28.83;24.67;;;22.90;95.00;;;;;;5036576;28;20029;-68
2023/06/29 04:11:13;;;;;;;29.13;24.85;;;22.80;95.00;;;;;;5036598;28;20041;-66
2023/06/29 04:13:39;;;;;;;27.40;24.20;;;22.90;95.00;;;;;;5036105;28;20021;-65
2023/06/29 04:16:05;;;;;;;32.10;23.85;;;22.90;95.10;;;;;;5036588;28;20707;-65
2023/06/29 04:18:30;;;;;;;28.88;24.02;;;22.90;95.10;;;;;;5036232;28;20025;-66
2023/06/29 04:20:56;;;;;;;30.38;26.10;;;22.90;95.10;;;;;;5036454;28;20211;-67
2023/06/29 04:23:21;;;;;;;31.15;25.42;;;22.80;95.10;;;;;;5036330;28;20022;-68
2023/06/29 04:25:47;;;;;;;31.33;25.17;;;22.80;95.10;;;;;;5036231;28;20030;-65
2023/06/29 04:28:13;;;;;;;32.50;24.85;;;22.80;95.10;;;;;;5035854;28;20049;-68
2023/06/29 04:30:42;;;;;;;29.45;23.35;;;22.90;95.10;;;;;;5036175;28;20359;-65
2023/06/29 04:33:11;;;;;;;29.58;25.20;;;22.80;95.20;;;;;;5036145;28;20053;-69
2023/06/29 04:35:44;;;;;;;29.50;25.05;;;22.80;95.10;;;;;;5035928;28;20033;-66
2023/06/29 04:38:10;;;;;;;27.33;23.88;;;22.80;95.20;;;;;;5036033;28;20083;-66
2023/06/29 04:40:37;;;;;;;30.80;23.92;;;22.80;95.50;;;;;;5035772;28;20033;-67
2023/06/29 04:43:03;;;;;;;28.10;23.50;;;22.90;95.40;;;;;;5035511;28;20060;-66
2023/06/29 04:45:31;;;;;;;27.27;23.63;;;22.90;95.40;;;;;;5035918;28;20431;-68
2023/06/29 04:47:58;;;;;;;27.05;22.35;;;23.00;95.30;;;;;;5034420;28;20022;-69
2023/06/29 04:50:31;;;;;;;28.75;23.75;;;23.00;95.30;;;;;;5035888;28;20025;-66
2023/06/29 04:52:58;;;;;;;30.35;24.50;;;23.00;95.30;;;;;;5035799;28;20029;-69
2023/06/29 04:55:25;;;;;;;30.23;23.85;;;23.00;95.30;;;;;;5034085;28;20057;-66
2023/06/29 04:57:51;;;;;;;28.52;22.40;;;23.00;95.30;;;;;;5035588;28;20084;-67
2023/06/29 05:00:17;;;;;;;28.15;23.48;;;23.00;95.30;;;;;;5035782;28;20099;-67
2023/06/29 05:02:42;;;;;;;28.58;24.73;;;23.00;95.20;;;;;;5035691;28;20112;-66
2023/06/29 05:05:09;;;;;;;28.67;23.90;;;23.00;95.20;;;;;;5035302;28;20474;-67
2023/06/29 05:07:37;;;;;;;33.78;25.13;;;23.00;95.50;;;;;;5035583;28;20021;-66
2023/06/29 05:10:03;;;;;;;28.40;24.23;;;23.00;95.20;;;;;;5035219;28;20524;-69
2023/06/29 05:12:29;;;;;;;30.65;25.02;;;23.10;95.20;;;;;;5034188;28;20030;-70
2023/06/29 05:14:54;;;;;;;31.15;24.55;;;23.00;95.20;;;;;;5035132;28;20185;-71
2023/06/29 05:17:20;;;;;;;32.80;26.58;;;23.00;95.20;;;;;;5035104;28;20048;-71
2023/06/29 05:19:46;;;;;;;29.33;24.42;;;23.10;95.20;;;;;;5035211;28;20030;-71
2023/06/29 05:22:12;;;;;;;32.90;25.90;;;23.10;95.30;;;;;;5035255;28;20124;-70
2023/06/29 05:24:38;;;;;;;31.67;26.13;;;23.10;95.20;;;;;;5034692;28;20490;-71
2023/06/29 05:27:04;;;;;;;28.63;23.85;;;23.10;95.30;;;;;;5035311;28;20471;-71
2023/06/29 05:29:29;;;;;;;27.98;24.75;;;23.00;95.20;;;;;;5034825;28;20112;-69
2023/06/29 05:31:55;;;;;;;32.83;26.13;;;23.10;95.20;;;;;;5035016;28;20113;-67
2023/06/29 05:34:21;;;;;;;30.02;24.85;;;23.10;95.20;;;;;;5034815;28;20029;-66
2023/06/29 05:36:46;;;;;;;29.83;24.58;;;23.10;95.20;;;;;;5035114;28;20022;-66
2023/06/29 05:39:12;;;;;;;33.55;26.48;;;23.00;95.20;;;;;;5034378;28;20534;-67
2023/06/29 05:41:38;;;;;;;29.83;24.42;;;23.10;95.20;;;;;;5034775;28;20129;-65
2023/06/29 05:44:04;;;;;;;32.08;25.92;;;23.10;95.20;;;;;;5033424;28;20037;-70
2023/06/29 05:46:30;;;;;;;32.03;24.90;;;23.10;95.20;;;;;;5030839;28;20100;-67
2023/06/29 05:48:55;;;;;;;28.50;23.52;;;23.10;95.20;;;;;;5023714;28;20108;-68
2023/06/29 05:51:21;;;;;;;31.67;26.40;;;23.10;95.20;;;;;;5033010;28;20462;-66
2023/06/29 05:53:46;;;;;;;29.95;25.67;;;23.10;95.10;;;;;;5034207;28;20497;-70
2023/06/29 05:56:12;;;;;;;29.90;26.30;;;23.10;95.10;;;;;;5034529;28;20382;-66
2023/06/29 05:58:37;;;;;;;30.85;25.00;;;23.10;95.10;;;;;;5034222;28;20378;-66
2023/06/29 06:01:04;;;;;;;32.65;26.23;;;23.10;95.20;;;;;;5034355;28;20355;-69
2023/06/29 06:03:29;;;;;;;30.13;24.52;;;23.10;95.20;;;;;;5034237;28;20029;-67
2023/06/29 06:05:55;;;;;;;30.13;25.33;;;23.10;95.10;;;;;;5034191;28;20025;-68
2023/06/29 06:08:20;;;;;;;28.98;25.00;;;23.10;95.10;;;;;;5033955;28;20527;-70
2023/06/29 06:10:46;;;;;;;31.50;26.50;;;23.10;95.20;;;;;;5019232;28;20324;-64
2023/06/29 06:13:12;;;;;;;31.52;26.30;;;23.10;95.20;;;;;;5031494;28;20033;-67
2023/06/29 06:15:39;;;;;;;28.90;25.30;;;23.10;95.20;;;;;;5030427;28;20390;-64
2023/06/29 06:18:06;;;;;;;29.92;25.63;;;23.10;95.20;;;;;;5033892;28;20017;-65
2023/06/29 06:20:31;;;;;;;29.58;25.20;;;23.10;95.20;;;;;;5020429;28;20038;-69
2023/06/29 06:22:57;;;;;;;29.58;24.73;;;23.10;95.50;;;;;;5030820;28;20053;-72
2023/06/29 06:25:22;;;;;;;36.47;24.75;;;23.10;95.10;;;;;;5027640;28;20033;-65
2023/06/29 06:27:48;;;;;;;28.95;23.90;;;23.10;95.10;;;;;;5022679;28;20026;-69
2023/06/29 06:30:13;;;;;;;31.17;23.08;;;23.10;95.00;;;;;;5029594;28;20397;-68
2023/06/29 06:32:39;;;;;;;29.42;23.58;;;23.10;95.00;;;;;;5032673;28;20061;-66
2023/06/29 06:35:08;;;;;;;28.40;25.13;;;23.10;95.00;;;;;;5025003;28;20049;-71
2023/06/29 06:37:35;;;;;;;28.17;23.88;;;23.10;95.00;;;;;;5032864;28;20022;-66
2023/06/29 06:40:01;;;;;;;26.63;22.38;;;23.00;94.90;;;;;;5032882;28;20488;-72
2023/06/29 06:42:26;;;;;;;29.08;23.50;;;23.10;94.90;;;;;;5026145;28;20057;-66
2023/06/29 06:44:54;;;;;;;28.25;22.13;;;23.10;95.00;;;;;;5028149;28;20053;-65
2023/06/29 06:47:20;;;;;;;25.23;22.23;;;23.10;95.10;;;;;;5028865;28;20017;-66
2023/06/29 06:49:47;;;;;;;27.63;23.85;;;23.10;95.10;;;;;;5030258;28;20049;-67
2023/06/29 06:52:12;;;;;;;28.77;24.05;;;23.10;95.00;;;;;;5023788;28;20025;-67
2023/06/29 06:54:38;;;;;;;30.25;23.52;;;23.10;95.00;;;;;;5031323;28;20462;-70
2023/06/29 06:57:03;;;;;;;27.40;22.17;;;23.00;95.10;;;;;;5032397;28;20017;-72
2023/06/29 06:59:29;;;;;;;28.13;23.98;;;23.10;95.10;;;;;;5032205;28;20470;-66
2023/06/29 07:01:55;;;;;;;27.25;23.35;;;23.10;95.00;;;;;;5024557;28;20024;-64
2023/06/29 07:04:20;;;;;;;31.67;23.25;;;23.10;95.10;;;;;;5030439;28;20037;-65
2023/06/29 07:06:46;;;;;;;32.15;24.23;;;23.10;95.10;;;;;;5030389;28;20465;-66
2023/06/29 07:09:12;;;;;;;29.33;23.83;;;23.10;95.10;;;;;;5031192;28;20532;-67
2023/06/29 07:11:37;;;;;;;30.85;22.73;;;23.10;95.00;;;;;;5028708;28;20048;-70
2023/06/29 07:14:04;;;;;;;27.35;23.83;;;23.10;95.10;;;;;;5029084;28;20034;-66
2023/06/29 07:16:29;;;;;;;26.08;22.95;;;23.10;95.20;;;;;;5020016;28;20029;-68
2023/06/29 07:19:07;;;;;;;27.33;22.55;;;23.10;95.00;;;;;;5026307;28;20160;-66
2023/06/29 07:21:32;;;;;;;26.17;22.58;;;23.10;95.00;;;;;;5024763;28;20025;-66
2023/06/29 07:23:58;;;;;;;28.40;23.27;;;23.10;95.20;;;;;;5030347;28;20029;-68
2023/06/29 07:26:24;;;;;;;24.75;21.23;;;23.10;95.20;;;;;;5030880;28;20382;-69
2023/06/29 07:28:50;;;;;;;26.15;22.65;;;23.10;95.20;;;;;;5029497;28;20021;-66
2023/06/29 07:31:16;;;;;;;26.73;22.58;;;23.20;95.20;;;;;;5021636;28;20026;-70
2023/06/29 07:33:42;;;;;;;26.48;21.70;;;23.20;95.10;;;;;;5028010;28;20022;-65
2023/06/29 07:36:08;;;;;;;26.40;22.73;;;23.20;95.10;;;;;;5025782;28;20115;-70
2023/06/29 07:38:33;;;;;;;26.58;21.95;;;23.20;95.20;;;;;;5033511;28;20034;-63
2023/06/29 07:40:59;;;;;;;24.50;21.50;;;23.20;95.20;;;;;;5023445;28;20505;-69
2023/06/29 07:43:24;;;;;;;24.00;21.38;;;23.20;95.10;;;;;;5026700;28;20033;-66
2023/06/29 07:45:50;;;;;;;29.00;23.33;;;23.20;95.00;;;;;;5029168;28;20026;-66
2023/06/29 07:48:16;;;;;;;24.33;20.88;;;23.20;95.10;;;;;;5023811;28;20109;-71
2023/06/29 07:50:42;;;;;;;26.48;21.10;;;23.20;95.10;;;;;;5021245;28;20481;-66
2023/06/29 07:53:08;;;;;;;25.20;22.05;;;23.20;95.00;;;;;;5024784;28;20033;-68
2023/06/29 07:55:34;;;;;;;25.73;21.10;;;23.20;95.00;;;;;;5020744;28;20077;-67
2023/06/29 07:58:00;;;;;;;26.80;21.10;;;23.30;95.10;;;;;;5024435;28;20022;-67
2023/06/29 08:00:25;;;;;;;26.15;20.52;;;23.30;95.20;;;;;;5021743;28;20037;-69
2023/06/29 08:02:51;;;;;;;24.65;20.58;;;23.30;95.10;;;;;;5019427;28;20378;-65
2023/06/29 08:05:17;;;;;;;23.75;21.08;;;23.30;95.10;;;;;;5024841;28;20560;-71
2023/06/29 08:07:42;;;;;;;22.83;19.20;;;23.30;95.00;;;;;;5028649;28;20394;-65
2023/06/29 08:10:08;;;;;;;25.58;19.90;;;23.30;95.20;;;;;;5014633;28;20113;-69
2023/06/29 08:12:34;;;;;;;26.92;21.25;;;23.30;95.20;;;;;;5017696;28;20025;-69
2023/06/29 08:15:00;;;;;;;24.92;20.00;;;23.40;95.20;;;;;;5017719;28;20033;-69
2023/06/29 08:17:25;;;;;;;26.35;20.65;;;23.40;95.10;;;;;;5011118;28;20053;-66
2023/06/29 08:19:51;;;;;;;25.30;19.73;;;23.40;95.10;;;;;;5021808;28;20026;-67
2023/06/29 08:22:16;;;;;;;26.75;20.17;;;23.40;95.20;;;;;;5019438;28;20113;-68
2023/06/29 08:24:42;;;;;;;25.70;20.55;;;23.40;95.20;;;;;;5029182;28;20060;-70
2023/06/29 08:27:08;;;;;;;29.17;20.10;;;23.40;95.30;;;;;;5026916;28;20021;-63
2023/06/29 08:29:34;;;;;;;26.40;20.35;;;23.50;95.30;;;;;;5022207;28;20474;-63
2023/06/29 08:32:00;;;;;;;26.90;20.83;;;23.50;95.30;;;;;;5028206;28;20026;-62
2023/06/29 08:34:26;;;;;;;23.90;19.50;;;23.60;95.20;;;;;;5026966;28;20045;-66
2023/06/29 08:36:51;;;;;;;24.05;19.85;;;23.60;95.20;;;;;;5029230;28;20037;-68
2023/06/29 08:39:17;;;;;;;23.35;20.50;;;23.60;95.20;;;;;;5021699;28;20065;-65
2023/06/29 08:41:42;;;;;;;22.88;20.20;;;23.60;95.20;;;;;;5016804;28;20030;-66
2023/06/29 08:44:08;;;;;;;23.40;18.45;;;23.60;95.20;;;;;;5026691;28;20095;-65
2023/06/29 08:46:37;;;;;;;29.65;20.25;;;23.60;95.20;;;;;;5026751;28;20427;-66
2023/06/29 08:49:06;;;;;;;28.63;19.55;;;23.70;95.20;;;;;;5027945;28;20021;-67
2023/06/29 08:51:34;;;;;;;25.88;20.38;;;23.70;95.20;;;;;;5026896;28;20426;-66
2023/06/29 08:54:01;;;;;;;25.60;20.25;;;23.70;95.20;;;;;;5035064;28;20029;-65
2023/06/29 08:56:28;;;;;;;25.50;19.75;;;23.70;95.20;;;;;;5035380;28;20034;-68
2023/06/29 08:58:55;;;;;;;28.83;20.17;;;23.70;95.10;;;;;;5024863;28;20112;-66
2023/06/29 09:01:22;;;;;;;22.83;19.83;;;23.80;95.20;;;;;;5030539;28;20025;-65
2023/06/29 09:03:50;;;;;;;24.67;20.55;;;23.80;95.10;;;;;;5018285;28;20228;-65
2023/06/29 09:06:15;;;;;;;25.15;20.92;;;23.80;95.00;;;;;;5035145;28;20022;-65
2023/06/29 09:08:41;;;;;;;26.83;21.08;;;23.80;95.00;;;;;;5034695;28;20152;-64
2023/06/29 09:11:07;;;;;;;26.35;20.23;;;23.80;94.90;;;;;;5033564;28;20029;-65
2023/06/29 09:13:36;;;;;;;25.00;21.08;;;23.90;94.90;;;;;;5021422;28;20055;-66
2023/06/29 09:16:03;;;;;;;26.55;21.17;;;23.90;94.90;;;;;;5014662;28;20089;-67
2023/06/29 09:18:29;;;;;;;24.05;20.27;;;23.90;94.80;;;;;;5011223;28;20025;-65
2023/06/29 09:20:55;;;;;;;23.52;19.15;;;23.90;94.80;;;;;;5019686;28;20025;-67
2023/06/29 09:23:21;;;;;;;24.25;20.05;;;24.00;94.80;;;;;;5032347;28;20021;-67
2023/06/29 09:25:49;;;;;;;26.75;21.45;;;24.00;94.70;;;;;;5033819;28;20021;-66
2023/06/29 09:28:15;;;;;;;26.02;20.95;;;24.00;94.60;;;;;;5014898;28;20018;-66
2023/06/29 09:30:41;;;;;;;29.48;21.20;;;24.00;94.60;;;;;;5026934;28;20136;-66
2023/06/29 09:33:09;;;;;;;27.33;22.75;;;24.00;94.50;;;;;;5032986;28;20136;-66
2023/06/29 09:35:39;;;;;;;27.92;22.20;;;24.10;94.40;;;;;;5032755;28;20037;-68
2023/06/29 09:38:05;;;;;;;25.38;21.60;;;24.10;94.40;;;;;;5034245;28;20057;-68
2023/06/29 09:40:31;;;;;;;29.23;23.85;;;24.10;94.30;;;;;;5034134;28;20520;-68
2023/06/29 09:43:01;;;;;;;26.10;22.10;;;24.10;94.20;;;;;;5034855;28;20101;-67
2023/06/29 09:45:31;;;;;;;31.88;22.33;;;24.10;94.20;;;;;;5024614;28;20049;-67
2023/06/29 09:47:57;;;;;;;29.30;23.15;;;24.20;94.10;;;;;;5015019;28;20061;-66
2023/06/29 09:50:24;;;;;;;27.45;22.50;;;24.20;94.10;;;;;;5024392;28;20025;-68
2023/06/29 09:52:54;;;;;;;29.80;22.05;;;24.20;94.00;;;;;;5022176;28;20026;-72
2023/06/29 09:55:28;;;;;;;24.15;21.38;;;24.20;93.60;;;;;;5020753;28;20037;-73
2023/06/29 09:57:56;;;;;;;24.00;20.60;;;24.30;93.30;;;;;;5032910;28;20021;-72
2023/06/29 10:00:22;;;;;;;27.38;22.27;;;24.30;93.40;;;;;;5033590;28;20040;-72
2023/06/29 10:02:47;;;;;;;25.48;22.25;;;24.30;93.30;;;;;;5033416;28;20041;-72
2023/06/29 10:05:13;;;;;;;28.60;21.92;;;24.30;93.30;;;;;;5031258;28;20462;-72
2023/06/29 10:07:41;;;;;;;26.38;22.58;;;24.30;93.00;;;;;;5032114;28;20516;-74
2023/06/29 10:10:10;;;;;;;25.85;22.45;;;24.40;92.70;;;;;;5034185;28;20033;-72
2023/06/29 10:12:36;;;;;;;24.45;21.38;;;24.40;92.70;;;;;;5020477;28;20042;-72
2023/06/29 10:15:08;;;;;;;25.55;21.52;;;24.40;92.70;;;;;;5025991;28;20087;-73
2023/06/29 10:17:41;;;;;;;;;;;24.40;92.90;;;;;;5014002;28;20014;-73
2023/06/29 10:20:08;;;;;;;25.50;22.08;;;24.40;92.90;;;;;;5022152;28;20320;-73
2023/06/29 10:22:36;;;;;;;25.00;21.48;;;24.40;93.00;;;;;;5027180;28;20071;-71
2023/06/29 10:25:08;;;;;;;25.98;22.30;;;24.50;92.90;;;;;;5032425;28;20105;-74
2023/06/29 10:27:34;;;;;;;25.38;22.52;;;24.40;92.80;;;;;;5032710;28;20387;-72
2023/06/29 10:30:05;;;;;;;25.70;22.98;;;24.40;92.90;;;;;;5033405;28;20033;-73
2023/06/29 10:32:35;;;;;;;25.48;21.98;;;24.50;92.70;;;;;;5033881;28;20028;-72
2023/06/29 10:35:13;;;;;;;28.02;22.15;;;24.50;92.80;;;;;;5033622;28;20076;-72
2023/06/29 10:37:44;;;;;;;28.55;22.65;;;24.50;92.60;;;;;;5029534;28;20446;-72
2023/06/29 10:40:17;;;;;;;25.25;22.27;;;24.50;92.60;;;;;;5033362;28;20167;-73
2023/06/29 10:42:42;;;;;;;28.35;22.63;;;24.50;92.60;;;;;;5033783;28;20013;-72
2023/06/29 10:45:20;;;;;;;27.00;22.95;;;24.60;92.60;;;;;;5031447;28;20052;-73
2023/06/29 10:47:58;;;;;;;26.60;22.80;;;24.60;92.80;;;;;;5033532;28;20056;-74
2023/06/29 10:50:40;;;;;;;26.63;21.98;;;24.60;92.80;;;;;;5028623;28;20025;-73
2023/06/29 10:53:08;;;;;;;26.27;22.58;;;24.60;92.60;;;;;;5026704;28;20014;-73
2023/06/29 10:55:42;;;;;;;23.70;21.13;;;24.60;92.60;;;;;;5012417;28;20049;-73
2023/06/29 10:58:16;;;;;;;25.67;21.67;;;24.60;92.60;;;;;;5013407;28;20022;-72
2023/06/29 11:00:41;;;;;;;25.70;22.92;;;24.60;92.50;;;;;;5023542;28;20437;-73
2023/06/29 11:03:08;;;;;;;27.90;23.55;;;24.60;92.70;;;;;;5028298;28;20443;-73
2023/06/29 11:05:35;;;;;;;26.92;23.98;;;24.70;92.80;;;;;;5033166;28;20109;-72
2023/06/29 11:08:01;;;;;;;28.98;24.67;;;24.60;92.70;;;;;;5031600;28;20033;-70
2023/06/29 11:10:26;;;;;;;31.45;25.77;;;24.70;92.70;;;;;;5026097;28;20033;-74
2023/06/29 11:12:56;;;;;;;33.22;28.00;;;24.70;92.70;;;;;;5029724;28;20036;-71
2023/06/29 11:15:23;;;;;;;32.30;27.58;;;24.70;92.50;;;;;;5020627;28;20042;-72
2023/06/29 11:17:50;;;;;;;37.67;29.48;;;24.70;92.50;;;;;;5013960;28;20029;-71
2023/06/29 11:20:17;;;;;;;34.10;28.73;;;24.70;92.10;;;;;;5019996;28;20156;-72
2023/06/29 11:22:44;;;;;;;36.00;30.25;;;24.70;92.00;;;;;;5027656;28;20014;-74
2023/06/29 11:25:16;;;;;;;46.90;31.85;;;24.80;91.90;;;;;;5032772;28;20057;-67
2023/06/29 11:27:43;;;;;;;37.47;30.75;;;24.70;92.10;;;;;;5016100;28;20463;-68
2023/06/29 11:30:10;;;;;;;41.33;30.23;;;24.80;91.80;;;;;;5023016;28;20025;-69
2023/06/29 11:32:49;;;;;;;40.85;30.40;;;24.80;91.80;;;;;;5026319;28;20029;-69
2023/06/29 11:35:14;;;;;;;36.45;29.80;;;24.80;91.80;;;;;;5021136;28;20029;-68
2023/06/29 11:37:40;;;;;;;36.17;29.88;;;24.80;91.80;;;;;;5029291;28;20024;-68
2023/06/29 11:40:24;;;;;;;32.55;28.23;;;24.80;91.50;;;;;;5031388;28;20301;-68
2023/06/29 11:42:50;;;;;;;36.70;30.30;;;24.80;91.40;;;;;;5016598;28;20033;-68
2023/06/29 11:45:17;;;;;;;34.72;28.85;;;24.80;91.40;;;;;;5026464;28;20038;-68
2023/06/29 11:47:50;;;;;;;31.98;26.58;;;24.90;91.50;;;;;;5029475;28;20056;-68
2023/06/29 11:50:17;;;;;;;27.73;22.33;;;24.90;91.80;;;;;;5029303;28;20105;-68
2023/06/29 11:52:44;;;;;;;27.63;22.30;;;24.90;92.00;;;;;;5027546;28;20018;-69
2023/06/29 11:55:12;;;;;;;26.85;18.35;;;24.90;92.20;;;;;;5025114;28;20029;-67
2023/06/29 11:57:40;;;;;;;21.70;19.40;;;24.90;92.30;;;;;;5029887;28;20148;-68
2023/06/29 12:00:29;;;;;;;25.80;21.42;;;24.90;92.10;;;;;;5031577;28;20060;-69
2023/06/29 12:02:54;;;;;;;19.98;15.70;;;25.00;92.00;;;;;;5037343;28;20021;-69
2023/06/29 12:05:26;;;;;;;17.23;14.30;;;25.00;92.40;;;;;;5034937;28;20533;-67
2023/06/29 12:07:51;;;;;;;25.98;20.92;;;25.00;92.50;;;;;;5031834;28;20017;-68
2023/06/29 12:10:24;;;;;;;21.67;18.00;;;25.00;92.20;;;;;;5042825;28;20437;-67
2023/06/29 12:12:58;;;;;;;22.95;18.58;;;25.00;92.40;;;;;;5026534;28;20049;-69
2023/06/29 12:15:26;;;;;;;19.60;16.17;;;25.00;92.60;;;;;;5043651;28;20072;-69
2023/06/29 12:17:58;;;;;;;22.10;16.52;;;25.00;92.60;;;;;;5028052;28;20018;-67
2023/06/29 12:20:24;;;;;;;22.10;17.50;;;25.00;92.60;;;;;;5034174;28;20025;-68
2023/06/29 12:22:54;;;;;;;21.83;16.98;;;25.10;92.60;;;;;;5034841;28;20355;-67
2023/06/29 12:25:21;;;;;;;19.45;15.75;;;25.00;92.50;;;;;;5032913;28;20040;-68
2023/06/29 12:27:48;;;;;;;16.33;14.38;;;25.10;92.80;;;;;;5030697;28;20028;-68